Time;durP1;ratioP1;P1;durP2;ratioP2;P2;SDS_P1;SDS_P2;PMS_P1;PMS_P2;Temp;Humidity;BMP_temperature;BMP_pressure;BME280_temperature;BME280_humidity;BME280_pressure;Samples;Min_cycle;Max_cycle;Signal;HPM_P1;HPM_P2
2022/08/26 05:00:15;;;;;;;6.73;6.13;;;20.80;97.20;;;;;;1734498;28;20190;-73
2022/08/26 05:01:07;;;;;;;6.75;6.15;;;20.80;97.20;;;;;;1734471;28;20211;-73
2022/08/26 05:02:00;;;;;;;7.13;6.53;;;20.80;97.20;;;;;;1734449;28;20549;-73
2022/08/26 05:02:51;;;;;;;7.03;6.40;;;20.80;97.20;;;;;;1731364;28;20230;-73
2022/08/26 05:03:42;;;;;;;6.70;6.20;;;20.80;97.20;;;;;;1728122;28;20738;-73
2022/08/26 05:04:33;;;;;;;6.63;6.03;;;20.80;97.20;;;;;;1730259;28;20192;-73
2022/08/26 05:05:25;;;;;;;6.50;6.00;;;20.80;97.20;;;;;;1727882;28;20209;-73
2022/08/26 05:06:18;;;;;;;6.53;6.03;;;20.80;97.20;;;;;;1733013;28;20231;-73
2022/08/26 05:07:10;;;;;;;5.97;5.50;;;20.80;97.20;;;;;;1730696;28;20198;-73
2022/08/26 05:08:00;;;;;;;6.65;6.15;;;20.80;97.20;;;;;;1727496;28;20262;-73
2022/08/26 05:08:53;;;;;;;6.33;5.83;;;20.80;97.20;;;;;;1730498;28;20199;-73
2022/08/26 05:09:44;;;;;;;7.07;6.40;;;20.80;97.20;;;;;;1732526;28;20707;-73
2022/08/26 05:10:39;;;;;;;7.95;7.20;;;20.80;97.20;;;;;;1732618;28;20269;-73
2022/08/26 05:11:30;;;;;;;6.63;5.90;;;20.80;97.20;;;;;;1732109;28;20682;-73
2022/08/26 05:12:22;;;;;;;6.57;6.07;;;20.90;97.20;;;;;;1733282;28;20804;-73
2022/08/26 05:13:15;;;;;;;7.00;6.20;;;20.90;97.20;;;;;;1726723;28;20623;-73
2022/08/26 05:14:07;;;;;;;6.80;6.30;;;20.90;97.20;;;;;;1726861;28;20198;-73
2022/08/26 05:14:58;;;;;;;7.20;6.70;;;20.90;97.20;;;;;;1728199;28;20200;-72
2022/08/26 05:15:52;;;;;;;6.50;6.00;;;20.90;97.20;;;;;;1732022;28;20279;-72
2022/08/26 05:16:43;;;;;;;6.72;6.22;;;20.90;97.20;;;;;;1733502;28;20203;-71
2022/08/26 05:17:35;;;;;;;6.53;6.03;;;20.90;97.20;;;;;;1733151;28;20207;-72
2022/08/26 05:18:28;;;;;;;6.63;6.13;;;20.90;97.20;;;;;;1733319;28;20196;-72
2022/08/26 05:19:20;;;;;;;6.72;6.18;;;20.90;97.20;;;;;;1733918;28;20196;-72
2022/08/26 05:20:11;;;;;;;6.35;5.85;;;20.90;97.20;;;;;;1734257;28;20204;-72
2022/08/26 05:21:03;;;;;;;6.63;6.13;;;20.90;97.20;;;;;;1734209;28;20211;-72
2022/08/26 05:21:54;;;;;;;6.47;6.00;;;21.00;97.20;;;;;;1734238;28;20929;-72
2022/08/26 05:22:46;;;;;;;7.20;6.60;;;21.00;97.20;;;;;;1734311;28;20868;-71
2022/08/26 05:23:37;;;;;;;6.90;6.30;;;21.00;97.20;;;;;;1733927;28;20882;-72
2022/08/26 05:24:29;;;;;;;6.13;5.73;;;21.00;97.20;;;;;;1734183;28;20274;-72
2022/08/26 05:25:21;;;;;;;6.63;6.13;;;21.00;97.20;;;;;;1734053;28;20462;-73
2022/08/26 05:26:12;;;;;;;6.80;6.30;;;21.00;97.20;;;;;;1734199;28;20207;-72
2022/08/26 05:27:04;;;;;;;6.80;6.20;;;21.00;97.20;;;;;;1733875;28;20200;-72
2022/08/26 05:27:56;;;;;;;6.28;5.53;;;21.00;97.20;;;;;;1733452;28;20226;-72
2022/08/26 05:28:47;;;;;;;6.22;5.82;;;21.00;97.20;;;;;;1733871;28;20206;-72
2022/08/26 05:29:39;;;;;;;6.33;5.83;;;21.10;97.20;;;;;;1734119;28;20203;-72
2022/08/26 05:30:30;;;;;;;5.80;5.40;;;21.10;97.20;;;;;;1733549;28;20471;-73
2022/08/26 05:31:26;;;;;;;6.70;6.20;;;21.10;97.20;;;;;;1733492;28;20199;-72
2022/08/26 05:32:17;;;;;;;6.60;6.10;;;21.10;97.20;;;;;;1734035;28;20533;-72
2022/08/26 05:33:10;;;;;;;6.43;5.90;;;21.10;97.20;;;;;;1734209;28;20199;-72
2022/08/26 05:34:03;;;;;;;7.35;6.65;;;21.20;97.20;;;;;;1733960;28;20208;-72
2022/08/26 05:34:55;;;;;;;6.28;5.70;;;21.20;97.20;;;;;;1733557;28;20203;-72
2022/08/26 05:35:47;;;;;;;6.70;6.20;;;21.20;97.20;;;;;;1734161;28;20199;-72
2022/08/26 05:36:39;;;;;;;6.85;6.22;;;21.20;97.20;;;;;;1733912;28;20200;-73
2022/08/26 05:37:29;;;;;;;6.00;5.60;;;21.20;97.20;;;;;;1733512;28;20207;-72
2022/08/26 05:38:22;;;;;;;6.80;6.20;;;21.20;97.20;;;;;;1733984;28;20204;-72
2022/08/26 05:39:13;;;;;;;6.18;5.68;;;21.20;97.20;;;;;;1734101;28;20956;-73
2022/08/26 05:40:06;;;;;;;6.50;6.00;;;21.20;97.20;;;;;;1734095;28;20639;-72
2022/08/26 05:40:57;;;;;;;7.00;6.50;;;21.20;97.20;;;;;;1733892;28;20462;-73
2022/08/26 05:41:49;;;;;;;6.90;6.20;;;21.20;97.20;;;;;;1733637;28;20200;-73
2022/08/26 05:42:40;;;;;;;7.50;6.90;;;21.20;97.20;;;;;;1733527;28;20447;-74
2022/08/26 05:43:32;;;;;;;6.68;6.10;;;21.20;97.20;;;;;;1732459;28;20663;-73
2022/08/26 05:44:23;;;;;;;6.93;6.32;;;21.20;97.20;;;;;;1734042;28;20200;-72
2022/08/26 05:45:15;;;;;;;6.90;6.40;;;21.20;97.20;;;;;;1734031;28;20243;-73
2022/08/26 05:46:06;;;;;;;6.80;6.30;;;21.20;97.20;;;;;;1733512;28;20442;-73
2022/08/26 05:46:59;;;;;;;6.20;5.70;;;21.20;97.20;;;;;;1733374;28;20725;-73
2022/08/26 05:47:50;;;;;;;9.18;6.22;;;21.20;97.20;;;;;;1733052;28;20211;-74
2022/08/26 05:48:42;;;;;;;7.03;6.53;;;21.20;97.20;;;;;;1733290;28;20278;-74
2022/08/26 05:49:32;;;;;;;7.82;7.22;;;21.20;97.20;;;;;;1733413;28;20865;-73
2022/08/26 05:50:24;;;;;;;6.60;6.10;;;21.20;97.20;;;;;;1733727;28;20750;-73
2022/08/26 05:51:15;;;;;;;6.85;6.35;;;21.20;97.20;;;;;;1733822;28;20603;-73
2022/08/26 05:52:07;;;;;;;6.87;6.27;;;21.20;97.20;;;;;;1734106;28;20641;-73
2022/08/26 05:52:57;;;;;;;6.60;6.10;;;21.20;97.20;;;;;;1733994;28;20196;-74
2022/08/26 05:53:50;;;;;;;6.63;6.13;;;21.20;97.20;;;;;;1733687;28;20662;-73
2022/08/26 05:54:41;;;;;;;6.50;6.00;;;21.20;97.20;;;;;;1733361;28;21034;-73
2022/08/26 05:55:33;;;;;;;6.87;6.37;;;21.20;97.20;;;;;;1733493;28;20685;-73
2022/08/26 05:56:26;;;;;;;7.35;6.45;;;21.20;97.20;;;;;;1734004;28;20658;-73
2022/08/26 05:57:17;;;;;;;6.97;6.47;;;21.10;97.20;;;;;;1733378;28;20265;-73
2022/08/26 05:58:08;;;;;;;6.60;6.10;;;21.10;97.20;;;;;;1734044;28;20196;-73
2022/08/26 05:59:01;;;;;;;7.38;6.75;;;21.10;97.20;;;;;;1733937;28;20196;-74
2022/08/26 05:59:52;;;;;;;7.13;6.53;;;21.10;97.20;;;;;;1733785;28;20192;-74
2022/08/26 06:00:43;;;;;;;6.78;6.28;;;21.10;97.20;;;;;;1733921;28;20232;-74
2022/08/26 06:01:35;;;;;;;6.47;6.07;;;21.10;97.20;;;;;;1734061;28;20724;-73
2022/08/26 06:02:27;;;;;;;6.32;5.93;;;21.00;97.20;;;;;;1734038;28;20218;-73
2022/08/26 06:03:19;;;;;;;7.10;6.60;;;21.00;97.20;;;;;;1734032;28;20282;-73
2022/08/26 06:04:10;;;;;;;6.75;6.25;;;21.00;97.20;;;;;;1733986;28;20204;-74
2022/08/26 06:05:02;;;;;;;7.07;6.50;;;21.10;97.20;;;;;;1734008;28;20564;-73
2022/08/26 06:05:53;;;;;;;6.57;6.07;;;21.10;97.20;;;;;;1733954;28;20331;-73
2022/08/26 06:06:45;;;;;;;6.97;6.47;;;21.10;97.20;;;;;;1733836;28;20301;-73
2022/08/26 06:08:51;;;;;;;7.00;6.50;;;21.10;97.20;;;;;;1716454;28;20235;-73
2022/08/26 06:09:42;;;;;;;6.90;6.35;;;21.10;97.20;;;;;;1727200;28;20212;-74
2022/08/26 06:10:35;;;;;;;7.00;6.50;;;21.10;97.20;;;;;;1727142;28;20303;-73
2022/08/26 06:11:27;;;;;;;6.55;6.05;;;21.10;97.20;;;;;;1727262;28;20707;-73
2022/08/26 06:12:18;;;;;;;6.80;6.30;;;21.10;97.20;;;;;;1727158;28;20215;-73
2022/08/26 06:13:10;;;;;;;6.50;6.10;;;21.10;97.20;;;;;;1727253;28;20208;-73
2022/08/26 06:14:04;;;;;;;8.48;5.97;;;21.10;97.20;;;;;;1727165;28;20261;-73
2022/08/26 06:14:56;;;;;;;9.90;6.82;;;21.10;97.20;;;;;;1727018;28;20224;-73
2022/08/26 06:15:50;;;;;;;8.23;7.22;;;21.10;97.20;;;;;;1727277;28;20239;-73
2022/08/26 06:16:42;;;;;;;8.38;6.95;;;21.10;97.20;;;;;;1726989;28;20215;-73
2022/08/26 06:17:35;;;;;;;8.15;6.80;;;21.10;97.20;;;;;;1726725;28;20196;-73
2022/08/26 06:18:31;;;;;;;10.13;7.10;;;21.10;97.20;;;;;;1727163;28;20215;-73
2022/08/26 06:19:23;;;;;;;7.45;6.80;;;21.10;97.20;;;;;;1727243;28;20275;-73
2022/08/26 06:20:14;;;;;;;7.03;6.43;;;21.10;97.20;;;;;;1727015;28;20205;-73
2022/08/26 06:21:15;;;;;;;7.72;7.15;;;21.10;97.20;;;;;;1727123;28;20207;-73
2022/08/26 06:25:36;;;;;;;6.53;6.13;;;21.10;97.20;;;;;;1727140;28;20200;-73
2022/08/26 06:25:37;;;;;;;7.00;6.50;;;21.20;97.20;;;;;;1727309;28;20211;-74
2022/08/26 06:26:29;;;;;;;7.57;6.88;;;21.20;97.20;;;;;;1727244;28;20200;-74
2022/08/26 06:27:20;;;;;;;6.63;6.13;;;21.20;97.20;;;;;;1726195;28;20209;-74
2022/08/26 06:28:13;;;;;;;6.93;6.43;;;21.20;97.20;;;;;;1726668;28;20224;-73
2022/08/26 06:29:06;;;;;;;6.93;6.32;;;21.30;97.20;;;;;;1727008;28;20675;-74
2022/08/26 06:29:57;;;;;;;7.00;6.50;;;21.30;97.20;;;;;;1727059;28;20299;-74
2022/08/26 06:30:49;;;;;;;7.18;6.65;;;21.30;97.20;;;;;;1727053;28;20224;-74
2022/08/26 06:31:40;;;;;;;7.60;7.10;;;21.30;97.20;;;;;;1727246;28;20528;-74
2022/08/26 06:32:31;;;;;;;7.60;7.07;;;21.30;97.20;;;;;;1727577;28;20584;-74
2022/08/26 06:33:27;;;;;;;7.13;6.53;;;21.30;97.20;;;;;;1727136;28;20208;-74
2022/08/26 06:34:18;;;;;;;7.28;6.57;;;21.40;97.20;;;;;;1727072;28;20577;-73
2022/08/26 06:35:10;;;;;;;7.43;6.80;;;21.40;97.20;;;;;;1727052;28;20236;-73
2022/08/26 06:36:02;;;;;;;7.53;6.93;;;21.40;97.20;;;;;;1727100;28;20261;-73
2022/08/26 06:36:55;;;;;;;6.95;6.35;;;21.40;97.20;;;;;;1726841;28;20655;-72
2022/08/26 06:37:46;;;;;;;7.38;6.68;;;21.50;97.20;;;;;;1726674;28;20570;-72
2022/08/26 06:38:37;;;;;;;7.50;6.80;;;21.50;97.20;;;;;;1732176;28;20242;-72
2022/08/26 06:39:28;;;;;;;7.00;6.50;;;21.50;97.20;;;;;;1733981;28;20204;-72
2022/08/26 06:40:23;;;;;;;7.78;7.20;;;21.50;97.20;;;;;;1733272;28;20230;-72
2022/08/26 06:41:14;;;;;;;7.43;6.82;;;21.50;97.20;;;;;;1733860;28;20253;-74
2022/08/26 06:42:06;;;;;;;7.65;6.93;;;21.60;97.20;;;;;;1734174;28;20253;-73
2022/08/26 06:42:57;;;;;;;7.32;6.70;;;21.60;97.20;;;;;;1735293;28;20207;-72
2022/08/26 06:43:49;;;;;;;6.00;5.60;;;21.60;97.20;;;;;;1735125;28;20334;-73
2022/08/26 06:44:40;;;;;;;7.32;6.78;;;21.60;97.20;;;;;;1735192;28;20592;-73
2022/08/26 06:45:33;;;;;;;6.37;5.87;;;21.70;97.20;;;;;;1735368;28;20203;-73
2022/08/26 06:46:24;;;;;;;6.47;5.97;;;21.70;97.20;;;;;;1735319;28;20211;-73
2022/08/26 06:47:15;;;;;;;6.90;6.30;;;21.80;97.20;;;;;;1734488;28;20203;-73
2022/08/26 06:48:06;;;;;;;6.25;5.75;;;21.80;97.20;;;;;;1735325;28;20670;-73
2022/08/26 06:48:59;;;;;;;7.77;6.80;;;21.80;97.20;;;;;;1735048;28;20573;-73
2022/08/26 06:49:50;;;;;;;7.00;6.50;;;21.90;97.20;;;;;;1734941;28;20445;-73
2022/08/26 06:50:43;;;;;;;7.20;6.70;;;21.90;97.20;;;;;;1734700;28;20290;-73
2022/08/26 06:51:37;;;;;;;7.15;6.55;;;21.90;97.20;;;;;;1735330;28;20450;-72
2022/08/26 06:52:28;;;;;;;7.13;6.50;;;22.00;97.20;;;;;;1735188;28;20211;-71
2022/08/26 06:53:20;;;;;;;7.37;6.77;;;22.00;97.20;;;;;;1734300;28;20219;-72
2022/08/26 06:54:10;;;;;;;7.35;6.65;;;22.00;97.20;;;;;;1734504;28;20691;-72
2022/08/26 06:55:02;;;;;;;6.57;6.07;;;22.10;97.20;;;;;;1732398;28;20628;-72
2022/08/26 06:55:53;;;;;;;6.50;5.68;;;22.10;97.20;;;;;;1728412;28;20207;-72
2022/08/26 06:56:45;;;;;;;7.37;5.93;;;22.10;97.20;;;;;;1728145;28;20295;-72
2022/08/26 06:57:37;;;;;;;6.22;5.68;;;22.20;97.20;;;;;;1727450;28;20236;-72
2022/08/26 06:58:29;;;;;;;6.65;6.18;;;22.20;97.20;;;;;;1728292;28;20196;-72
2022/08/26 06:59:20;;;;;;;6.93;5.72;;;22.20;97.20;;;;;;1731326;28;20208;-72
2022/08/26 07:00:14;;;;;;;6.65;6.05;;;22.30;97.20;;;;;;1735134;28;20200;-72
2022/08/26 07:01:14;;;;;;;6.07;5.68;;;22.30;97.20;;;;;;1735197;28;20208;-72
2022/08/26 07:02:05;;;;;;;6.30;5.90;;;22.30;97.20;;;;;;1735296;28;20829;-71
2022/08/26 07:02:56;;;;;;;8.57;6.80;;;22.40;97.20;;;;;;1735156;28;20206;-72
2022/08/26 07:03:50;;;;;;;5.80;5.40;;;22.40;97.20;;;;;;1735185;28;20292;-72
2022/08/26 07:04:43;;;;;;;6.60;6.10;;;22.50;97.20;;;;;;1735575;28;20211;-72
2022/08/26 07:05:35;;;;;;;6.97;5.78;;;22.50;97.20;;;;;;1735147;28;20211;-72
2022/08/26 07:06:27;;;;;;;6.47;5.97;;;22.50;97.20;;;;;;1735096;28;20200;-72
2022/08/26 07:07:18;;;;;;;6.00;5.60;;;22.60;97.20;;;;;;1730238;28;20203;-72
2022/08/26 07:08:09;;;;;;;7.50;6.18;;;22.60;97.20;;;;;;1734352;28;20200;-72
2022/08/26 07:09:03;;;;;;;5.87;5.37;;;22.70;97.20;;;;;;1732058;28;20200;-72
2022/08/26 07:09:55;;;;;;;6.75;5.40;;;22.70;97.20;;;;;;1729756;28;20207;-72
2022/08/26 07:10:46;;;;;;;6.50;6.00;;;22.80;97.20;;;;;;1730905;28;20275;-71
2022/08/26 07:11:38;;;;;;;6.05;5.55;;;22.80;97.20;;;;;;1731105;28;20551;-71
2022/08/26 07:12:32;;;;;;;5.78;5.22;;;22.80;97.20;;;;;;1734264;28;20202;-72
2022/08/26 07:13:24;;;;;;;6.65;6.15;;;22.90;97.20;;;;;;1734648;28;20283;-71
2022/08/26 07:14:21;;;;;;;6.68;5.80;;;22.90;97.20;;;;;;1734051;28;20712;-71
2022/08/26 07:15:12;;;;;;;6.70;6.05;;;23.00;97.20;;;;;;1730002;28;20227;-71
2022/08/26 07:16:05;;;;;;;6.40;5.90;;;23.00;97.20;;;;;;1734550;28;20715;-71
2022/08/26 07:16:57;;;;;;;6.43;5.82;;;23.00;97.20;;;;;;1732308;28;20443;-71
2022/08/26 07:17:48;;;;;;;6.75;6.15;;;23.10;97.20;;;;;;1728525;28;20576;-70
2022/08/26 07:18:41;;;;;;;6.10;5.60;;;23.10;97.20;;;;;;1732341;28;20204;-71
2022/08/26 07:19:33;;;;;;;6.20;5.72;;;23.10;97.20;;;;;;1732645;28;20234;-70
2022/08/26 07:20:25;;;;;;;6.45;5.95;;;23.10;97.20;;;;;;1731713;28;20211;-71
2022/08/26 07:21:17;;;;;;;6.65;6.20;;;23.20;97.20;;;;;;1734532;28;20192;-70
2022/08/26 07:22:08;;;;;;;6.50;5.78;;;23.20;97.20;;;;;;1735041;28;20286;-70
2022/08/26 07:23:00;;;;;;;7.30;6.70;;;23.20;97.20;;;;;;1734917;28;20199;-71
2022/08/26 07:23:52;;;;;;;6.28;5.80;;;23.20;97.20;;;;;;1734911;28;20214;-70
2022/08/26 07:24:44;;;;;;;6.90;6.25;;;23.30;97.20;;;;;;1734982;28;20200;-72
2022/08/26 07:25:37;;;;;;;6.90;6.22;;;23.30;97.20;;;;;;1734369;28;20575;-73
2022/08/26 07:26:30;;;;;;;5.82;5.22;;;23.30;97.20;;;;;;1734435;28;20310;-71
2022/08/26 07:27:21;;;;;;;5.93;5.53;;;23.40;97.20;;;;;;1734019;28;20245;-71
2022/08/26 07:28:13;;;;;;;5.90;5.43;;;23.40;97.20;;;;;;1734653;28;20795;-71
2022/08/26 07:29:05;;;;;;;5.70;5.30;;;23.50;97.20;;;;;;1733790;28;20298;-73
2022/08/26 07:29:57;;;;;;;6.05;5.45;;;23.50;97.20;;;;;;1734361;28;20615;-73
2022/08/26 07:30:48;;;;;;;6.60;6.00;;;23.50;97.20;;;;;;1734593;28;20592;-73
2022/08/26 07:31:40;;;;;;;6.50;5.97;;;23.60;97.20;;;;;;1734427;28;20200;-72
2022/08/26 07:32:31;;;;;;;6.20;5.80;;;23.60;97.20;;;;;;1734505;28;20204;-73
2022/08/26 07:33:23;;;;;;;5.90;5.50;;;23.60;97.20;;;;;;1735086;28;20192;-73
2022/08/26 07:34:13;;;;;;;6.43;5.88;;;23.70;97.20;;;;;;1734689;28;20446;-73
2022/08/26 07:35:06;;;;;;;5.90;5.50;;;23.70;97.20;;;;;;1731015;28;20284;-73
2022/08/26 07:35:58;;;;;;;5.70;5.30;;;23.70;97.20;;;;;;1730355;28;20211;-73
2022/08/26 07:36:50;;;;;;;6.57;5.97;;;23.80;97.20;;;;;;1734545;28;20218;-72
2022/08/26 07:37:41;;;;;;;6.32;5.75;;;23.80;97.20;;;;;;1733855;28;20204;-73
2022/08/26 07:38:34;;;;;;;6.13;5.63;;;23.80;97.20;;;;;;1734914;28;20371;-72
2022/08/26 07:39:25;;;;;;;6.10;5.50;;;23.80;97.20;;;;;;1735102;28;20211;-72
2022/08/26 07:40:17;;;;;;;5.70;5.30;;;23.90;97.20;;;;;;1734938;28;20228;-74
2022/08/26 07:41:08;;;;;;;6.00;5.60;;;23.90;97.20;;;;;;1735091;28;20663;-72
2022/08/26 07:42:00;;;;;;;6.47;5.97;;;23.90;97.20;;;;;;1734988;28;20626;-72
2022/08/26 07:42:51;;;;;;;6.13;5.65;;;23.90;97.20;;;;;;1730696;28;20203;-72
2022/08/26 07:43:44;;;;;;;6.30;5.87;;;23.90;97.20;;;;;;1734063;28;20282;-72
2022/08/26 07:44:35;;;;;;;6.80;6.30;;;24.00;97.20;;;;;;1734802;28;20208;-72
2022/08/26 07:45:27;;;;;;;5.97;5.47;;;24.00;97.20;;;;;;1733973;28;20203;-72
2022/08/26 07:46:19;;;;;;;6.38;5.78;;;24.00;97.20;;;;;;1734381;28;20561;-72
2022/08/26 07:47:11;;;;;;;5.72;5.32;;;24.10;97.20;;;;;;1727336;28;20251;-72
2022/08/26 07:48:02;;;;;;;6.07;5.57;;;24.10;97.20;;;;;;1733914;28;20192;-73
2022/08/26 07:48:54;;;;;;;5.43;5.10;;;24.10;97.20;;;;;;1734755;28;20291;-73
2022/08/26 07:49:44;;;;;;;6.10;5.63;;;24.10;97.20;;;;;;1734786;28;20219;-72
2022/08/26 07:50:36;;;;;;;5.67;5.20;;;24.10;97.20;;;;;;1734600;28;20314;-72
2022/08/26 07:51:28;;;;;;;6.18;5.68;;;24.20;97.20;;;;;;1734910;28;20606;-72
2022/08/26 07:52:20;;;;;;;5.93;5.30;;;24.20;97.20;;;;;;1734681;28;20257;-72
2022/08/26 07:53:11;;;;;;;5.93;5.53;;;24.20;97.20;;;;;;1734810;28;20196;-72
2022/08/26 07:54:04;;;;;;;6.07;5.68;;;24.20;97.20;;;;;;1733743;28;20192;-72
2022/08/26 07:54:56;;;;;;;5.97;5.50;;;24.20;97.20;;;;;;1734852;28;20200;-72
2022/08/26 07:55:49;;;;;;;6.20;5.70;;;24.30;97.20;;;;;;1734792;28;20202;-72
2022/08/26 07:56:40;;;;;;;6.57;6.10;;;24.30;97.20;;;;;;1734566;28;20204;-72
2022/08/26 07:57:33;;;;;;;6.40;5.90;;;24.30;97.20;;;;;;1734312;28;20203;-72
2022/08/26 07:58:25;;;;;;;6.35;5.85;;;24.30;97.20;;;;;;1734660;28;20207;-72
2022/08/26 07:59:17;;;;;;;6.40;5.90;;;24.30;97.20;;;;;;1734660;28;20685;-72
2022/08/26 08:00:14;;;;;;;6.70;6.20;;;24.40;97.20;;;;;;1734893;28;20545;-73
2022/08/26 08:01:05;;;;;;;6.35;5.85;;;24.40;97.20;;;;;;1734978;28;20250;-72
2022/08/26 08:01:59;;;;;;;6.20;5.70;;;24.40;97.20;;;;;;1734491;28;20203;-73
2022/08/26 08:02:50;;;;;;;6.10;5.60;;;24.40;97.20;;;;;;1734764;28;20658;-74
2022/08/26 08:03:42;;;;;;;6.40;5.80;;;24.50;97.20;;;;;;1734825;28;20687;-73
2022/08/26 08:04:33;;;;;;;6.50;5.95;;;24.50;97.20;;;;;;1734735;28;20446;-72
2022/08/26 08:05:25;;;;;;;5.95;5.55;;;24.50;97.20;;;;;;1734746;28;20249;-72
2022/08/26 08:06:16;;;;;;;6.10;5.45;;;24.50;97.20;;;;;;1734740;28;20204;-72
2022/08/26 08:07:10;;;;;;;6.85;6.30;;;24.50;97.20;;;;;;1734636;28;20238;-72
2022/08/26 08:08:03;;;;;;;6.30;5.80;;;24.60;97.20;;;;;;1734813;28;20207;-72
2022/08/26 08:08:54;;;;;;;6.43;5.93;;;24.60;97.20;;;;;;1734569;28;20686;-72
2022/08/26 08:09:48;;;;;;;6.10;5.70;;;24.60;97.20;;;;;;1734716;28;20219;-72
2022/08/26 08:10:40;;;;;;;6.55;6.05;;;24.60;97.20;;;;;;1734224;28;20224;-72
2022/08/26 08:11:31;;;;;;;6.03;5.60;;;24.70;97.20;;;;;;1734708;28;20204;-72
2022/08/26 08:12:23;;;;;;;6.22;5.72;;;24.70;97.20;;;;;;1734759;28;20203;-72
2022/08/26 08:13:14;;;;;;;7.57;6.22;;;24.80;97.20;;;;;;1734753;28;20203;-72
2022/08/26 08:14:06;;;;;;;6.90;6.40;;;24.80;97.20;;;;;;1734800;28;20692;-72
2022/08/26 08:14:56;;;;;;;6.22;5.80;;;24.90;97.20;;;;;;1734345;28;20196;-72
2022/08/26 08:15:48;;;;;;;6.80;5.83;;;24.90;97.20;;;;;;1734643;28;20282;-72
2022/08/26 08:16:39;;;;;;;6.82;6.18;;;25.00;97.20;;;;;;1734477;28;20204;-72
2022/08/26 08:17:33;;;;;;;7.03;5.95;;;25.00;97.20;;;;;;1734108;28;20210;-72
2022/08/26 08:18:23;;;;;;;6.93;6.28;;;25.10;97.20;;;;;;1734308;28;20196;-72
2022/08/26 08:19:15;;;;;;;6.97;6.30;;;25.10;97.20;;;;;;1734698;28;20196;-72
2022/08/26 08:20:07;;;;;;;11.10;5.80;;;25.20;97.20;;;;;;1734686;28;20209;-72
2022/08/26 08:21:02;;;;;;;8.25;6.97;;;25.20;97.20;;;;;;1734513;28;20220;-72
2022/08/26 08:21:52;;;;;;;12.88;6.95;;;25.30;97.20;;;;;;1734652;28;20204;-72
2022/08/26 08:22:46;;;;;;;11.53;7.30;;;25.40;97.20;;;;;;1734746;28;20199;-72
2022/08/26 08:23:38;;;;;;;11.65;7.13;;;25.40;97.20;;;;;;1734605;28;20227;-72
2022/08/26 08:24:30;;;;;;;13.82;7.03;;;25.40;97.20;;;;;;1734742;28;20204;-72
2022/08/26 08:25:21;;;;;;;15.38;7.90;;;25.50;97.20;;;;;;1734608;28;20204;-72
2022/08/26 08:26:14;;;;;;;18.40;7.68;;;25.50;97.20;;;;;;1734616;28;20195;-72
2022/08/26 08:27:05;;;;;;;18.33;8.63;;;25.60;97.20;;;;;;1734342;28;20207;-72
2022/08/26 08:27:57;;;;;;;13.95;7.15;;;25.60;97.20;;;;;;1734061;28;20242;-72
2022/08/26 08:28:48;;;;;;;17.35;7.63;;;25.70;97.20;;;;;;1734116;28;20192;-72
2022/08/26 08:29:40;;;;;;;13.18;8.15;;;25.70;97.20;;;;;;1734681;28;20231;-72
2022/08/26 08:30:31;;;;;;;15.70;8.30;;;25.80;97.20;;;;;;1734556;28;20666;-73
2022/08/26 08:31:25;;;;;;;18.50;7.80;;;25.80;97.20;;;;;;1734532;28;20953;-72
2022/08/26 08:32:16;;;;;;;15.77;8.15;;;25.80;97.20;;;;;;1734671;28;20810;-72
2022/08/26 08:33:10;;;;;;;19.98;7.95;;;25.90;97.20;;;;;;1734586;28;20733;-72
2022/08/26 08:34:01;;;;;;;16.27;8.03;;;25.90;97.20;;;;;;1734512;28;20225;-72
2022/08/26 08:34:53;;;;;;;12.10;7.67;;;26.00;97.20;;;;;;1734564;28;20431;-72
2022/08/26 08:35:44;;;;;;;11.10;6.83;;;26.00;97.20;;;;;;1734457;28;20219;-72
2022/08/26 08:36:36;;;;;;;16.27;8.20;;;26.00;97.20;;;;;;1734430;28;20446;-72
2022/08/26 08:37:27;;;;;;;18.73;8.13;;;26.10;97.20;;;;;;1733990;28;20667;-72
2022/08/26 08:38:20;;;;;;;24.00;8.37;;;26.10;97.20;;;;;;1734526;28;20570;-72
2022/08/26 08:39:11;;;;;;;21.53;8.17;;;26.10;97.20;;;;;;1734489;28;20200;-72
2022/08/26 08:40:05;;;;;;;14.77;7.23;;;26.20;97.20;;;;;;1734527;28;20511;-72
2022/08/26 08:40:56;;;;;;;13.33;6.77;;;26.20;97.20;;;;;;1734484;28;20535;-72
2022/08/26 08:42:19;;;;;;;14.30;7.13;;;26.30;97.20;;;;;;1734659;28;20504;-72
2022/08/26 08:43:13;;;;;;;13.13;7.43;;;26.30;97.20;;;;;;1713311;28;20210;-72
2022/08/26 08:44:12;;;;;;;13.93;7.53;;;26.30;97.20;;;;;;1731739;28;20537;-72
2022/08/26 08:45:07;;;;;;;19.43;8.23;;;26.40;97.20;;;;;;1734549;28;20208;-72
2022/08/26 08:46:04;;;;;;;16.02;7.30;;;26.40;97.20;;;;;;1733169;28;20442;-72
2022/08/26 08:47:01;;;;;;;10.57;6.55;;;26.40;97.20;;;;;;1734274;28;20196;-72
2022/08/26 08:47:55;;;;;;;8.17;6.47;;;26.50;97.20;;;;;;1734081;28;20207;-72
2022/08/26 08:48:51;;;;;;;12.23;6.80;;;26.50;97.20;;;;;;1734455;28;20443;-72
2022/08/26 08:49:43;;;;;;;9.27;6.70;;;26.50;97.20;;;;;;1734547;28;20200;-72
2022/08/26 08:50:38;;;;;;;7.90;7.20;;;26.60;97.20;;;;;;1733990;28;20214;-72
2022/08/26 08:51:38;;;;;;;10.00;6.43;;;26.60;97.20;;;;;;1734238;28;20214;-72
2022/08/26 08:52:34;;;;;;;9.95;6.30;;;26.60;97.20;;;;;;1734441;28;20291;-72
2022/08/26 08:53:32;;;;;;;8.43;6.70;;;26.60;97.20;;;;;;1734495;28;20204;-72
2022/08/26 08:54:25;;;;;;;7.87;6.90;;;26.50;97.20;;;;;;1734504;28;20227;-72
2022/08/26 08:55:16;;;;;;;8.80;6.20;;;26.50;97.20;;;;;;1734431;28;20805;-72
2022/08/26 08:56:19;;;;;;;8.60;7.03;;;26.50;97.20;;;;;;1734444;28;20314;-72
2022/08/26 08:57:15;;;;;;;15.25;6.82;;;26.50;97.20;;;;;;1733776;28;20795;-71
2022/08/26 08:58:13;;;;;;;8.00;7.20;;;26.50;97.20;;;;;;1734444;28;20701;-71
2022/08/26 08:59:13;;;;;;;8.13;6.53;;;26.50;97.20;;;;;;1734254;28;20203;-71
2022/08/26 09:00:10;;;;;;;13.35;7.57;;;26.50;97.20;;;;;;1734383;28;20443;-71
2022/08/26 09:01:07;;;;;;;7.37;6.67;;;26.50;97.20;;;;;;1734243;28;20294;-71
2022/08/26 09:02:09;;;;;;;12.93;7.13;;;26.50;97.20;;;;;;1734021;28;20447;-71
2022/08/26 09:03:08;;;;;;;6.93;6.33;;;26.50;97.20;;;;;;1734446;28;20196;-71
2022/08/26 09:04:17;;;;;;;9.93;6.67;;;26.50;97.20;;;;;;1734339;28;20466;-71
2022/08/26 09:05:14;;;;;;;7.40;6.40;;;26.50;97.20;;;;;;1734170;28;20976;-71
2022/08/26 09:06:15;;;;;;;9.40;7.00;;;26.60;97.20;;;;;;1734642;28;20422;-71
2022/08/26 09:07:11;;;;;;;7.85;7.25;;;26.60;97.20;;;;;;1734455;28;20561;-71
2022/08/26 09:08:07;;;;;;;9.60;8.68;;;26.60;97.20;;;;;;1734476;28;20254;-71
2022/08/26 09:09:01;;;;;;;8.53;7.93;;;26.60;97.20;;;;;;1734294;28;20253;-71
2022/08/26 09:09:57;;;;;;;7.80;7.00;;;26.60;97.20;;;;;;1734480;28;20489;-71
2022/08/26 09:10:54;;;;;;;8.23;7.53;;;26.70;97.20;;;;;;1734384;28;20246;-71
2022/08/26 09:11:46;;;;;;;11.07;7.57;;;26.70;97.20;;;;;;1734407;28;20512;-71
2022/08/26 09:12:36;;;;;;;8.37;7.57;;;26.70;97.20;;;;;;1734379;28;20669;-71
2022/08/26 09:13:29;;;;;;;9.77;8.47;;;26.70;97.20;;;;;;1734451;28;20438;-71
2022/08/26 09:14:19;;;;;;;7.87;6.93;;;26.70;97.20;;;;;;1734258;28;20443;-71
2022/08/26 09:15:18;;;;;;;11.57;6.30;;;26.70;97.20;;;;;;1734356;28;20443;-71
2022/08/26 09:16:13;;;;;;;8.80;6.73;;;26.80;97.20;;;;;;1734308;28;20694;-71
2022/08/26 09:17:12;;;;;;;7.60;5.70;;;26.80;97.20;;;;;;1734179;28;20982;-71
2022/08/26 09:18:10;;;;;;;7.57;6.47;;;26.80;97.20;;;;;;1734407;28;20922;-71
2022/08/26 09:19:17;;;;;;;7.00;6.30;;;26.80;97.20;;;;;;1733814;28;20446;-71
2022/08/26 09:20:16;;;;;;;8.07;6.20;;;26.80;97.20;;;;;;1734550;28;20447;-71
2022/08/26 09:21:11;;;;;;;14.00;7.03;;;26.80;97.20;;;;;;1734143;28;20534;-71
2022/08/26 09:22:02;;;;;;;12.03;6.80;;;26.90;97.20;;;;;;1734293;28;20938;-71
2022/08/26 09:22:55;;;;;;;11.37;8.77;;;26.90;97.20;;;;;;1734306;28;20849;-71
2022/08/26 09:23:46;;;;;;;10.17;7.90;;;26.90;97.20;;;;;;1734313;28;20450;-71
2022/08/26 09:24:40;;;;;;;8.33;7.63;;;26.90;97.20;;;;;;1734210;28;20475;-71
2022/08/26 09:25:31;;;;;;;8.73;7.30;;;26.90;97.20;;;;;;1734381;28;20558;-71
2022/08/26 09:26:25;;;;;;;8.00;7.27;;;27.00;97.20;;;;;;1734291;28;20446;-71
2022/08/26 09:27:36;;;;;;;8.57;6.73;;;27.00;97.20;;;;;;1733638;28;20212;-71
2022/08/26 09:28:29;;;;;;;8.93;7.13;;;27.00;97.20;;;;;;1734214;28;20999;-71
2022/08/26 09:29:24;;;;;;;9.05;7.00;;;27.00;97.20;;;;;;1734209;28;20442;-71
2022/08/26 09:30:21;;;;;;;9.03;6.33;;;27.00;97.20;;;;;;1734141;28;20200;-72
2022/08/26 09:31:19;;;;;;;8.40;6.20;;;27.00;97.20;;;;;;1734209;28;20537;-71
2022/08/26 09:32:18;;;;;;;6.70;5.90;;;27.00;97.20;;;;;;1734230;28;20461;-71
2022/08/26 09:33:14;;;;;;;9.87;6.70;;;26.90;97.20;;;;;;1733885;28;20451;-71
2022/08/26 09:34:13;;;;;;;7.27;6.57;;;27.00;97.20;;;;;;1734286;28;20443;-71
2022/08/26 09:35:06;;;;;;;7.97;7.17;;;27.00;97.20;;;;;;1734312;28;20435;-71
2022/08/26 09:36:14;;;;;;;8.13;6.20;;;27.00;97.20;;;;;;1734089;28;20937;-71
2022/08/26 09:37:07;;;;;;;12.02;7.03;;;27.00;97.20;;;;;;1734111;28;20477;-72
2022/08/26 09:37:59;;;;;;;9.30;7.27;;;27.00;97.20;;;;;;1733588;28;20238;-71
2022/08/26 09:38:51;;;;;;;7.30;6.63;;;27.10;97.20;;;;;;1734092;28;20457;-71